Willow Island, West Virginia
Current Conditions -  °F | °C
As of 5:53 PM on Wednesday 26 Nov 2014 (Local Time) from KPKB Reporting Station
Haze Haze  
Wind Chill: 36°   Ceiling: 3000
Heat Index: 36°   Visibility: 6mi
Dew Point: 32°   Wind: 3mph
Humidity: 86%   Direction: 100°E
Pressure: 30.05"   Gusts: NA
Location:  39.3518°N, 81.2939°W
Report Text: KPKB 262253Z 10003KT 6SM BR BKN030 OVC050 02/00 A3005 RMK AO2 SLP182 T00220000
Loading
Personal Weather Stations






























Interactive Weather Map New forecast layout! Learn more

10-Day Weather Forecast

Advertisements
Track Severe Weather on mobile